Littorina — DLMG — position and weather

sailwx.info

Track history (hours):
 
Tides and Currents Weather Stations Pressure Air Temp Water Temp Dewpoint Dewpoint Depression Visibility Wind Speed Wind Dir Waves Ship Positions

Oceanographic research ship Littorina (Germany)

Detailed information on ship capabilities available from University of Delaware's Ocean Information Center.

Last reported at 2015-Mar-03 10:34 UTC. Time now 2015-Mar-03 11:17 UTC.
Position N 53°53' E 009°05'.

Length 30 m; draft 3 m.

Type: Fishing. MMSI: 211214250.

Date/timePositionNaut miles runAvg speedWind from/ knotsBaromVisibWave heightAir tempDewpointWater temp
2015-Mar-03 10:34N 53°53' E 009°05'3 3.3
2015-Mar-03 09:34N 53°54' E 009°10'9 9.0
2015-Mar-03 08:33N 54°02' E 009°18'19 8.6
2015-Mar-03 06:19N 54°17' E 009°38'1 0.2
2015-Mar-03 00:20N 54°18' E 009°40'0 0.0
2015-Mar-02 15:26N 54°18' E 009°40'0 0.0
2015-Mar-02 11:19N 54°18' E 009°40'6 7.8
2015-Mar-02 10:34N 54°22' E 009°47'7 7.4
2015-Mar-02 09:33N 54°21' E 009°60'5 0.6
2015-Mar-02 00:31N 54°20' E 010°09'0 0.0
2015-Mar-01 23:32N 54°20' E 010°09'0 0.0
2015-Mar-01 22:32N 54°20' E 010°09'0 0.0
2015-Mar-01 21:31N 54°20' E 010°09'0 0.0
2015-Mar-01 20:31N 54°20' E 010°09'0 0.0
2015-Mar-01 19:31N 54°20' E 010°09'0 0.0
2015-Mar-01 18:31N 54°20' E 010°09'0 0.0
2015-Mar-01 17:31N 54°20' E 010°09'0 0.0
2015-Mar-01 16:32N 54°20' E 010°09'0 0.0
2015-Mar-01 15:31N 54°20' E 010°09'0 0.0
2015-Mar-01 14:31N 54°20' E 010°09'0 0.0
2015-Mar-01 13:31N 54°20' E 010°09'0 0.0
2015-Mar-01 12:31N 54°20' E 010°09'0 0.0
2015-Mar-01 11:31N 54°20' E 010°09'0 0.0
2015-Mar-01 10:31N 54°20' E 010°09'0 0.0
2015-Mar-01 09:31N 54°20' E 010°09'0 0.0
2015-Mar-01 08:31N 54°20' E 010°09'0 0.0
2015-Mar-01 07:31N 54°20' E 010°09'0 0.0
2015-Mar-01 06:31N 54°20' E 010°09'0 0.0
2015-Mar-01 05:31N 54°20' E 010°09'0 0.0
2015-Mar-01 04:31N 54°20' E 010°09'0 0.0
2015-Mar-01 03:31N 54°20' E 010°09'0 0.0
2015-Mar-01 02:31N 54°20' E 010°09'0 0.0
2015-Mar-01 01:31N 54°20' E 010°09'0 0.0
2015-Mar-01 00:31N 54°20' E 010°09'0 0.0
2015-Feb-28 23:31N 54°20' E 010°09'0 0.0
2015-Feb-28 22:31N 54°20' E 010°09'0 0.0
2015-Feb-28 21:31N 54°20' E 010°09'0 0.0
2015-Feb-28 20:31N 54°20' E 010°09'0 0.0
2015-Feb-28 19:31N 54°20' E 010°09'0 0.0
2015-Feb-28 18:31N 54°20' E 010°09'0 0.0
2015-Feb-28 17:31N 54°20' E 010°09'0 0.0
2015-Feb-28 16:31N 54°20' E 010°09'0 0.0
2015-Feb-28 15:31N 54°20' E 010°09'0 0.0
2015-Feb-28 14:31N 54°20' E 010°09'0 0.0
2015-Feb-28 13:31N 54°20' E 010°09'0 0.0
2015-Feb-28 12:31N 54°20' E 010°09'0 0.0
2015-Feb-28 11:31N 54°20' E 010°09'0 0.0
2015-Feb-28 10:31N 54°20' E 010°09'0 0.0
2015-Feb-28 09:31N 54°20' E 010°09'0 0.0
2015-Feb-28 08:31N 54°20' E 010°09'0 0.0
2015-Feb-28 07:31N 54°20' E 010°09'0 0.0
2015-Feb-28 06:31N 54°20' E 010°09'0 0.0
2015-Feb-28 05:31N 54°20' E 010°09'0 0.0
2015-Feb-28 04:31N 54°20' E 010°09'0 0.0
2015-Feb-28 03:31N 54°20' E 010°09'0 0.0
2015-Feb-28 02:31N 54°20' E 010°09'0 0.0
2015-Feb-28 01:31N 54°20' E 010°09'0 0.0
2015-Feb-28 00:31N 54°20' E 010°09'0 0.0
2015-Feb-27 23:31N 54°20' E 010°09'0 0.0
2015-Feb-27 22:31N 54°20' E 010°09'0 0.0
2015-Feb-27 21:31N 54°20' E 010°09'0 0.0
2015-Feb-27 20:31N 54°20' E 010°09'0 0.0
2015-Feb-27 19:31N 54°20' E 010°09'0 0.0
2015-Feb-27 18:31N 54°20' E 010°09'0 0.0
2015-Feb-27 17:31N 54°20' E 010°09'0 0.0
2015-Feb-27 16:31N 54°20' E 010°09'0 0.0
2015-Feb-27 15:31N 54°20' E 010°09'0 0.0
2015-Feb-27 14:31N 54°20' E 010°09'0 0.0
2015-Feb-27 13:31N 54°20' E 010°09'0 0.0
2015-Feb-27 12:31N 54°20' E 010°09'0 0.0
2015-Feb-27 11:31N 54°20' E 010°09'0 0.0
2015-Feb-27 10:31N 54°20' E 010°09'0 0.0
2015-Feb-27 09:31N 54°20' E 010°09'0 0.0
2015-Feb-27 08:31N 54°20' E 010°09'0 0.0
2015-Feb-27 07:31N 54°20' E 010°09'0 0.0
2015-Feb-27 06:31N 54°20' E 010°09'0 0.0
2015-Feb-27 05:31N 54°20' E 010°09'0 0.0
2015-Feb-27 04:31N 54°20' E 010°09'0 0.0
2015-Feb-27 03:31N 54°20' E 010°09'0 0.0
2015-Feb-27 02:31N 54°20' E 010°09'0 0.0
2015-Feb-27 01:31N 54°20' E 010°09'0 0.0
2015-Feb-27 00:31N 54°20' E 010°09'0 0.0
2015-Feb-26 23:31N 54°20' E 010°09'0 0.0
2015-Feb-26 22:31N 54°20' E 010°09'0 0.0
2015-Feb-26 21:31N 54°20' E 010°09'0 0.0
2015-Feb-26 20:31N 54°20' E 010°09'0 0.0
2015-Feb-26 19:31N 54°20' E 010°09'0 0.0
2015-Feb-26 18:31N 54°20' E 010°09'0 0.0
2015-Feb-26 17:31N 54°20' E 010°09'0 0.0
2015-Feb-26 16:31N 54°20' E 010°09'0 0.0
2015-Feb-26 15:31N 54°20' E 010°09'0 0.0
2015-Feb-26 14:31N 54°20' E 010°09'0 0.0
2015-Feb-26 13:31N 54°20' E 010°09'0 0.0
2015-Feb-26 12:31N 54°20' E 010°09'0 0.0
2015-Feb-26 11:31N 54°20' E 010°09'0 0.0
2015-Feb-26 10:31N 54°20' E 010°09'0 0.0
2015-Feb-26 09:31N 54°20' E 010°09'0 0.0
2015-Feb-26 08:31N 54°20' E 010°09'0 0.0
2015-Feb-26 07:31N 54°20' E 010°09'0 0.0
2015-Feb-26 06:31N 54°20' E 010°09'0 0.0
2015-Feb-26 05:31N 54°20' E 010°09'0 0.0
2015-Feb-26 04:31N 54°20' E 010°09'0 0.0
2015-Feb-26 03:31N 54°20' E 010°09'0 0.0
2015-Feb-26 02:31N 54°20' E 010°09'0 0.0
2015-Feb-26 01:31N 54°20' E 010°09'0 0.0
2015-Feb-26 00:31N 54°20' E 010°09'0 0.0
2015-Feb-25 23:31N 54°20' E 010°09'0 0.0
2015-Feb-25 22:31N 54°20' E 010°09'0 0.0
2015-Feb-25 21:31N 54°20' E 010°09'0 0.0
2015-Feb-25 20:31N 54°20' E 010°09'0 0.0
2015-Feb-25 19:31N 54°20' E 010°09'0 0.0
2015-Feb-25 18:31N 54°20' E 010°09'0 0.0
2015-Feb-25 17:31N 54°20' E 010°09'0 0.0
2015-Feb-25 16:31N 54°20' E 010°09'0 0.0
2015-Feb-25 15:31N 54°20' E 010°09'0 0.0
2015-Feb-25 14:31N 54°20' E 010°09'0 0.0
2015-Feb-25 13:31N 54°20' E 010°09'0 0.0
2015-Feb-25 12:31N 54°20' E 010°09'5 5.3
2015-Feb-25 11:34N 54°25' E 010°12'6 6.4
2015-Feb-25 10:34N 54°31' E 010°13'1 1.2
2015-Feb-25 09:33N 54°30' E 010°11'0 0.5
2015-Feb-25 08:34N 54°30' E 010°12'5 4.7
2015-Feb-25 07:34N 54°25' E 010°12'5 5.3
2015-Feb-25 06:32N 54°20' E 010°09'0 0.0
2015-Feb-25 05:32N 54°20' E 010°09'0 0.0
2015-Feb-25 04:32N 54°20' E 010°09'0 0.0
2015-Feb-25 03:32N 54°20' E 010°09'0 0.0
2015-Feb-25 02:32N 54°20' E 010°09'0 0.0
2015-Feb-25 01:32N 54°20' E 010°09'0 0.0
2015-Feb-25 00:32N 54°20' E 010°09'0 0.0
2015-Feb-24 23:32N 54°20' E 010°09'0 0.0
2015-Feb-24 22:32N 54°20' E 010°09'0 0.0
2015-Feb-24 21:32N 54°20' E 010°09'0 0.0
2015-Feb-24 20:32N 54°20' E 010°09'0 0.0
2015-Feb-24 19:32N 54°20' E 010°09'0 0.0
2015-Feb-24 18:32N 54°20' E 010°09'0 0.0
2015-Feb-24 17:32N 54°20' E 010°09'0 0.0
2015-Feb-24 16:32N 54°20' E 010°09'0 0.0
2015-Feb-24 15:32N 54°20' E 010°09'5 5.1
2015-Feb-24 14:34N 54°24' E 010°12'6 6.4
2015-Feb-24 13:34N 54°31' E 010°12'1 0.9
2015-Feb-24 12:34N 54°30' E 010°12'0 0.4
2015-Feb-24 11:34N 54°30' E 010°12'1 0.5
2015-Feb-24 10:33N 54°31' E 010°13'1 1.1
2015-Feb-24 09:34N 54°30' E 010°14'1 0.6
2015-Feb-24 08:34N 54°29' E 010°13'9 8.8
2015-Feb-24 07:34N 54°21' E 010°10'1 1.2
2015-Feb-24 06:31N 54°20' E 010°09'0 0.0
2015-Feb-24 05:31N 54°20' E 010°09'0 0.0
2015-Feb-24 04:31N 54°20' E 010°09'0 0.0
2015-Feb-24 03:31N 54°20' E 010°09'0 0.0
2015-Feb-24 02:31N 54°20' E 010°09'0 0.0
2015-Feb-24 01:31N 54°20' E 010°09'0 0.0
2015-Feb-24 00:31N 54°20' E 010°09'0 0.0
2015-Feb-23 23:31N 54°20' E 010°09'0 0.0
2015-Feb-23 22:31N 54°20' E 010°09'0 0.0
2015-Feb-23 21:31N 54°20' E 010°09'0 0.0
2015-Feb-23 20:31N 54°20' E 010°09'0 0.0
2015-Feb-23 14:04N 54°20' E 010°09'0 0.0
2015-Feb-23 13:31N 54°20' E 010°09'1 0.6
2015-Feb-23 12:33N 54°20' E 010°10'9 8.6
2015-Feb-23 11:33N 54°29' E 010°12'6 1.9
2015-Feb-23 08:33N 54°31' E 010°04'12 0.9
2015-Feb-22 19:29N 54°20' E 010°09'0 0.0
2015-Feb-22 18:32N 54°20' E 010°09'0 0.0
2015-Feb-22 17:32N 54°20' E 010°09'0 0.0
2015-Feb-22 16:32N 54°20' E 010°09'0 0.0
2015-Feb-22 15:32N 54°20' E 010°09'0 0.0
2015-Feb-22 14:32N 54°20' E 010°09'0 0.0
2015-Feb-22 13:32N 54°20' E 010°09'0 0.0
2015-Feb-22 12:32N 54°20' E 010°09'0 0.0
2015-Feb-22 11:32N 54°20' E 010°09'0 0.0
2015-Feb-22 10:32N 54°20' E 010°09'0 0.0
2015-Feb-22 09:32N 54°20' E 010°09'0 0.0
2015-Feb-22 08:32N 54°20' E 010°09'0 0.0
2015-Feb-22 07:32N 54°20' E 010°09'0 0.0
2015-Feb-22 06:32N 54°20' E 010°09'0 0.0
2015-Feb-22 05:32N 54°20' E 010°09'0 0.0
2015-Feb-22 04:32N 54°20' E 010°09'0 0.0
2015-Feb-22 03:32N 54°20' E 010°09'0 0.0
2015-Feb-22 02:32N 54°20' E 010°09'0 0.0
2015-Feb-22 01:32N 54°20' E 010°09'0 0.0
2015-Feb-22 00:32N 54°20' E 010°09'0 0.0
2015-Feb-21 23:32N 54°20' E 010°09'0 0.0
2015-Feb-21 22:32N 54°20' E 010°09'0 0.0
2015-Feb-21 21:32N 54°20' E 010°09'0 0.0
2015-Feb-21 20:32N 54°20' E 010°09'0 0.0
2015-Feb-21 19:32N 54°20' E 010°09'0 0.0
2015-Feb-21 18:32N 54°20' E 010°09'0 0.0
2015-Feb-21 17:32N 54°20' E 010°09'0 0.0
2015-Feb-21 16:32N 54°20' E 010°09'0 0.0
2015-Feb-21 15:32N 54°20' E 010°09'0 0.0
2015-Feb-21 14:32N 54°20' E 010°09'0 0.0
2015-Feb-21 13:32N 54°20' E 010°09'0 0.0
2015-Feb-21 12:32N 54°20' E 010°09'0 0.0
2015-Feb-21 11:32N 54°20' E 010°09'  
Track history (hours):
 
Tides and Currents Weather Stations Pressure Air Temp Water Temp Dewpoint Dewpoint Depression Visibility Wind Speed Wind Dir Waves Ship Positions

Oceanographic research ship Littorina (Germany)

Detailed information on ship capabilities available from University of Delaware's Ocean Information Center.

Last reported at 2015-Mar-03 10:34 UTC. Time now 2015-Mar-03 11:17 UTC.
Position N 53°53' E 009°05'.

Length 30 m; draft 3 m.

Type: Fishing. MMSI: 211214250.

Date/timePositionNaut miles runAvg speedWind from/ knotsBaromVisibWave heightAir tempDewpointWater temp
2015-Mar-03 10:34N 53°53' E 009°05'3 3.3
2015-Mar-03 09:34N 53°54' E 009°10'9 9.0
2015-Mar-03 08:33N 54°02' E 009°18'19 8.6
2015-Mar-03 06:19N 54°17' E 009°38'1 0.2
2015-Mar-03 00:20N 54°18' E 009°40'0 0.0
2015-Mar-02 15:26N 54°18' E 009°40'0 0.0
2015-Mar-02 11:19N 54°18' E 009°40'6 7.8
2015-Mar-02 10:34N 54°22' E 009°47'7 7.4
2015-Mar-02 09:33N 54°21' E 009°60'5 0.6
2015-Mar-02 00:31N 54°20' E 010°09'0 0.0
2015-Mar-01 23:32N 54°20' E 010°09'0 0.0
2015-Mar-01 22:32N 54°20' E 010°09'0 0.0
2015-Mar-01 21:31N 54°20' E 010°09'0 0.0
2015-Mar-01 20:31N 54°20' E 010°09'0 0.0
2015-Mar-01 19:31N 54°20' E 010°09'0 0.0
2015-Mar-01 18:31N 54°20' E 010°09'0 0.0
2015-Mar-01 17:31N 54°20' E 010°09'0 0.0
2015-Mar-01 16:32N 54°20' E 010°09'0 0.0
2015-Mar-01 15:31N 54°20' E 010°09'0 0.0
2015-Mar-01 14:31N 54°20' E 010°09'0 0.0
2015-Mar-01 13:31N 54°20' E 010°09'0 0.0
2015-Mar-01 12:31N 54°20' E 010°09'0 0.0
2015-Mar-01 11:31N 54°20' E 010°09'0 0.0
2015-Mar-01 10:31N 54°20' E 010°09'0 0.0
2015-Mar-01 09:31N 54°20' E 010°09'0 0.0
2015-Mar-01 08:31N 54°20' E 010°09'0 0.0
2015-Mar-01 07:31N 54°20' E 010°09'0 0.0
2015-Mar-01 06:31N 54°20' E 010°09'0 0.0
2015-Mar-01 05:31N 54°20' E 010°09'0 0.0
2015-Mar-01 04:31N 54°20' E 010°09'0 0.0
2015-Mar-01 03:31N 54°20' E 010°09'0 0.0
2015-Mar-01 02:31N 54°20' E 010°09'0 0.0
2015-Mar-01 01:31N 54°20' E 010°09'0 0.0
2015-Mar-01 00:31N 54°20' E 010°09'0 0.0
2015-Feb-28 23:31N 54°20' E 010°09'0 0.0
2015-Feb-28 22:31N 54°20' E 010°09'0 0.0
2015-Feb-28 21:31N 54°20' E 010°09'0 0.0
2015-Feb-28 20:31N 54°20' E 010°09'0 0.0
2015-Feb-28 19:31N 54°20' E 010°09'0 0.0
2015-Feb-28 18:31N 54°20' E 010°09'0 0.0
2015-Feb-28 17:31N 54°20' E 010°09'0 0.0
2015-Feb-28 16:31N 54°20' E 010°09'0 0.0
2015-Feb-28 15:31N 54°20' E 010°09'0 0.0
2015-Feb-28 14:31N 54°20' E 010°09'0 0.0
2015-Feb-28 13:31N 54°20' E 010°09'0 0.0
2015-Feb-28 12:31N 54°20' E 010°09'0 0.0
2015-Feb-28 11:31N 54°20' E 010°09'0 0.0
2015-Feb-28 10:31N 54°20' E 010°09'0 0.0
2015-Feb-28 09:31N 54°20' E 010°09'0 0.0
2015-Feb-28 08:31N 54°20' E 010°09'0 0.0
2015-Feb-28 07:31N 54°20' E 010°09'0 0.0
2015-Feb-28 06:31N 54°20' E 010°09'0 0.0
2015-Feb-28 05:31N 54°20' E 010°09'0 0.0
2015-Feb-28 04:31N 54°20' E 010°09'0 0.0
2015-Feb-28 03:31N 54°20' E 010°09'0 0.0
2015-Feb-28 02:31N 54°20' E 010°09'0 0.0
2015-Feb-28 01:31N 54°20' E 010°09'0 0.0
2015-Feb-28 00:31N 54°20' E 010°09'0 0.0
2015-Feb-27 23:31N 54°20' E 010°09'0 0.0
2015-Feb-27 22:31N 54°20' E 010°09'0 0.0
2015-Feb-27 21:31N 54°20' E 010°09'0 0.0
2015-Feb-27 20:31N 54°20' E 010°09'0 0.0
2015-Feb-27 19:31N 54°20' E 010°09'0 0.0
2015-Feb-27 18:31N 54°20' E 010°09'0 0.0
2015-Feb-27 17:31N 54°20' E 010°09'0 0.0
2015-Feb-27 16:31N 54°20' E 010°09'0 0.0
2015-Feb-27 15:31N 54°20' E 010°09'0 0.0
2015-Feb-27 14:31N 54°20' E 010°09'0 0.0
2015-Feb-27 13:31N 54°20' E 010°09'0 0.0
2015-Feb-27 12:31N 54°20' E 010°09'0 0.0
2015-Feb-27 11:31N 54°20' E 010°09'0 0.0
2015-Feb-27 10:31N 54°20' E 010°09'0 0.0
2015-Feb-27 09:31N 54°20' E 010°09'0 0.0
2015-Feb-27 08:31N 54°20' E 010°09'0 0.0
2015-Feb-27 07:31N 54°20' E 010°09'0 0.0
2015-Feb-27 06:31N 54°20' E 010°09'0 0.0
2015-Feb-27 05:31N 54°20' E 010°09'0 0.0
2015-Feb-27 04:31N 54°20' E 010°09'0 0.0
2015-Feb-27 03:31N 54°20' E 010°09'0 0.0
2015-Feb-27 02:31N 54°20' E 010°09'0 0.0
2015-Feb-27 01:31N 54°20' E 010°09'0 0.0
2015-Feb-27 00:31N 54°20' E 010°09'0 0.0
2015-Feb-26 23:31N 54°20' E 010°09'0 0.0
2015-Feb-26 22:31N 54°20' E 010°09'0 0.0
2015-Feb-26 21:31N 54°20' E 010°09'0 0.0
2015-Feb-26 20:31N 54°20' E 010°09'0 0.0
2015-Feb-26 19:31N 54°20' E 010°09'0 0.0
2015-Feb-26 18:31N 54°20' E 010°09'0 0.0
2015-Feb-26 17:31N 54°20' E 010°09'0 0.0
2015-Feb-26 16:31N 54°20' E 010°09'0 0.0
2015-Feb-26 15:31N 54°20' E 010°09'0 0.0
2015-Feb-26 14:31N 54°20' E 010°09'0 0.0
2015-Feb-26 13:31N 54°20' E 010°09'0 0.0
2015-Feb-26 12:31N 54°20' E 010°09'0 0.0
2015-Feb-26 11:31N 54°20' E 010°09'0 0.0
2015-Feb-26 10:31N 54°20' E 010°09'0 0.0
2015-Feb-26 09:31N 54°20' E 010°09'0 0.0
2015-Feb-26 08:31N 54°20' E 010°09'0 0.0
2015-Feb-26 07:31N 54°20' E 010°09'0 0.0
2015-Feb-26 06:31N 54°20' E 010°09'0 0.0
2015-Feb-26 05:31N 54°20' E 010°09'0 0.0
2015-Feb-26 04:31N 54°20' E 010°09'0 0.0
2015-Feb-26 03:31N 54°20' E 010°09'0 0.0
2015-Feb-26 02:31N 54°20' E 010°09'0 0.0
2015-Feb-26 01:31N 54°20' E 010°09'0 0.0
2015-Feb-26 00:31N 54°20' E 010°09'0 0.0
2015-Feb-25 23:31N 54°20' E 010°09'0 0.0
2015-Feb-25 22:31N 54°20' E 010°09'0 0.0
2015-Feb-25 21:31N 54°20' E 010°09'0 0.0
2015-Feb-25 20:31N 54°20' E 010°09'0 0.0
2015-Feb-25 19:31N 54°20' E 010°09'0 0.0
2015-Feb-25 18:31N 54°20' E 010°09'0 0.0
2015-Feb-25 17:31N 54°20' E 010°09'0 0.0
2015-Feb-25 16:31N 54°20' E 010°09'0 0.0
2015-Feb-25 15:31N 54°20' E 010°09'0 0.0
2015-Feb-25 14:31N 54°20' E 010°09'0 0.0
2015-Feb-25 13:31N 54°20' E 010°09'0 0.0
2015-Feb-25 12:31N 54°20' E 010°09'5 5.3
2015-Feb-25 11:34N 54°25' E 010°12'6 6.4
2015-Feb-25 10:34N 54°31' E 010°13'1 1.2
2015-Feb-25 09:33N 54°30' E 010°11'0 0.5
2015-Feb-25 08:34N 54°30' E 010°12'5 4.7
2015-Feb-25 07:34N 54°25' E 010°12'5 5.3
2015-Feb-25 06:32N 54°20' E 010°09'0 0.0
2015-Feb-25 05:32N 54°20' E 010°09'0 0.0
2015-Feb-25 04:32N 54°20' E 010°09'0 0.0
2015-Feb-25 03:32N 54°20' E 010°09'0 0.0
2015-Feb-25 02:32N 54°20' E 010°09'0 0.0
2015-Feb-25 01:32N 54°20' E 010°09'0 0.0
2015-Feb-25 00:32N 54°20' E 010°09'0 0.0
2015-Feb-24 23:32N 54°20' E 010°09'0 0.0
2015-Feb-24 22:32N 54°20' E 010°09'0 0.0
2015-Feb-24 21:32N 54°20' E 010°09'0 0.0
2015-Feb-24 20:32N 54°20' E 010°09'0 0.0
2015-Feb-24 19:32N 54°20' E 010°09'0 0.0
2015-Feb-24 18:32N 54°20' E 010°09'0 0.0
2015-Feb-24 17:32N 54°20' E 010°09'0 0.0
2015-Feb-24 16:32N 54°20' E 010°09'0 0.0
2015-Feb-24 15:32N 54°20' E 010°09'5 5.1
2015-Feb-24 14:34N 54°24' E 010°12'6 6.4
2015-Feb-24 13:34N 54°31' E 010°12'1 0.9
2015-Feb-24 12:34N 54°30' E 010°12'0 0.4
2015-Feb-24 11:34N 54°30' E 010°12'1 0.5
2015-Feb-24 10:33N 54°31' E 010°13'1 1.1
2015-Feb-24 09:34N 54°30' E 010°14'1 0.6
2015-Feb-24 08:34N 54°29' E 010°13'9 8.8
2015-Feb-24 07:34N 54°21' E 010°10'1 1.2
2015-Feb-24 06:31N 54°20' E 010°09'0 0.0
2015-Feb-24 05:31N 54°20' E 010°09'0 0.0
2015-Feb-24 04:31N 54°20' E 010°09'0 0.0
2015-Feb-24 03:31N 54°20' E 010°09'0 0.0
2015-Feb-24 02:31N 54°20' E 010°09'0 0.0
2015-Feb-24 01:31N 54°20' E 010°09'0 0.0
2015-Feb-24 00:31N 54°20' E 010°09'0 0.0
2015-Feb-23 23:31N 54°20' E 010°09'0 0.0
2015-Feb-23 22:31N 54°20' E 010°09'0 0.0
2015-Feb-23 21:31N 54°20' E 010°09'0 0.0
2015-Feb-23 20:31N 54°20' E 010°09'0 0.0
2015-Feb-23 14:04N 54°20' E 010°09'0 0.0
2015-Feb-23 13:31N 54°20' E 010°09'1 0.6
2015-Feb-23 12:33N 54°20' E 010°10'9 8.6
2015-Feb-23 11:33N 54°29' E 010°12'6 1.9
2015-Feb-23 08:33N 54°31' E 010°04'12 0.9
2015-Feb-22 19:29N 54°20' E 010°09'0 0.0
2015-Feb-22 18:32N 54°20' E 010°09'0 0.0
2015-Feb-22 17:32N 54°20' E 010°09'0 0.0
2015-Feb-22 16:32N 54°20' E 010°09'0 0.0
2015-Feb-22 15:32N 54°20' E 010°09'0 0.0
2015-Feb-22 14:32N 54°20' E 010°09'0 0.0
2015-Feb-22 13:32N 54°20' E 010°09'0 0.0
2015-Feb-22 12:32N 54°20' E 010°09'0 0.0
2015-Feb-22 11:32N 54°20' E 010°09'0 0.0
2015-Feb-22 10:32N 54°20' E 010°09'0 0.0
2015-Feb-22 09:32N 54°20' E 010°09'0 0.0
2015-Feb-22 08:32N 54°20' E 010°09'0 0.0
2015-Feb-22 07:32N 54°20' E 010°09'0 0.0
2015-Feb-22 06:32N 54°20' E 010°09'0 0.0
2015-Feb-22 05:32N 54°20' E 010°09'0 0.0
2015-Feb-22 04:32N 54°20' E 010°09'0 0.0
2015-Feb-22 03:32N 54°20' E 010°09'0 0.0
2015-Feb-22 02:32N 54°20' E 010°09'0 0.0
2015-Feb-22 01:32N 54°20' E 010°09'0 0.0
2015-Feb-22 00:32N 54°20' E 010°09'0 0.0
2015-Feb-21 23:32N 54°20' E 010°09'0 0.0
2015-Feb-21 22:32N 54°20' E 010°09'0 0.0
2015-Feb-21 21:32N 54°20' E 010°09'0 0.0
2015-Feb-21 20:32N 54°20' E 010°09'0 0.0
2015-Feb-21 19:32N 54°20' E 010°09'0 0.0
2015-Feb-21 18:32N 54°20' E 010°09'0 0.0
2015-Feb-21 17:32N 54°20' E 010°09'0 0.0
2015-Feb-21 16:32N 54°20' E 010°09'0 0.0
2015-Feb-21 15:32N 54°20' E 010°09'0 0.0
2015-Feb-21 14:32N 54°20' E 010°09'0 0.0
2015-Feb-21 13:32N 54°20' E 010°09'0 0.0
2015-Feb-21 12:32N 54°20' E 010°09'0 0.0
2015-Feb-21 11:32N 54°20' E 010°09'  

Dump ship's entire track history